sensor_id;sensor_type;location;lat;lon;timestamp;temperature;humidity
22067;DHT22;72821;49.814;19.034;2023-12-28T00:02:57;19.50;33.30
22067;DHT22;72821;49.814;19.034;2023-12-28T00:07:59;19.50;33.20
22067;DHT22;72821;49.814;19.034;2023-12-28T00:13:02;19.50;32.80
22067;DHT22;72821;49.814;19.034;2023-12-28T00:18:04;19.50;32.90
22067;DHT22;72821;49.814;19.034;2023-12-28T00:23:06;19.40;33.10
22067;DHT22;72821;49.814;19.034;2023-12-28T00:28:08;19.30;32.50
22067;DHT22;72821;49.814;19.034;2023-12-28T00:33:10;19.20;32.50
22067;DHT22;72821;49.814;19.034;2023-12-28T00:38:13;19.20;32.30
22067;DHT22;72821;49.814;19.034;2023-12-28T00:43:15;19.20;31.70
22067;DHT22;72821;49.814;19.034;2023-12-28T00:48:17;19.20;31.60
22067;DHT22;72821;49.814;19.034;2023-12-28T00:53:19;19.10;31.70
22067;DHT22;72821;49.814;19.034;2023-12-28T00:58:21;19.20;31.40
22067;DHT22;72821;49.814;19.034;2023-12-28T01:03:23;19.20;31.10
22067;DHT22;72821;49.814;19.034;2023-12-28T01:08:26;19.40;31.20
22067;DHT22;72821;49.814;19.034;2023-12-28T01:13:28;19.20;30.60
22067;DHT22;72821;49.814;19.034;2023-12-28T01:18:30;19.30;30.70
22067;DHT22;72821;49.814;19.034;2023-12-28T01:23:33;19.50;30.40
22067;DHT22;72821;49.814;19.034;2023-12-28T01:28:35;19.60;30.50
22067;DHT22;72821;49.814;19.034;2023-12-28T01:33:37;19.60;30.90
22067;DHT22;72821;49.814;19.034;2023-12-28T01:38:40;19.70;30.10
22067;DHT22;72821;49.814;19.034;2023-12-28T01:43:42;19.90;30.40
22067;DHT22;72821;49.814;19.034;2023-12-28T01:48:45;19.70;30.90
22067;DHT22;72821;49.814;19.034;2023-12-28T01:53:49;19.80;30.80
22067;DHT22;72821;49.814;19.034;2023-12-28T01:58:53;19.90;31.00
22067;DHT22;72821;49.814;19.034;2023-12-28T02:03:56;19.90;31.50
22067;DHT22;72821;49.814;19.034;2023-12-28T02:08:58;19.80;31.80
22067;DHT22;72821;49.814;19.034;2023-12-28T02:14:00;19.90;31.70
22067;DHT22;72821;49.814;19.034;2023-12-28T02:19:24;20.20;31.40
22067;DHT22;72821;49.814;19.034;2023-12-28T02:24:27;19.90;31.70
22067;DHT22;72821;49.814;19.034;2023-12-28T02:29:29;19.80;32.20
22067;DHT22;72821;49.814;19.034;2023-12-28T02:34:36;20.10;31.40
22067;DHT22;72821;49.814;19.034;2023-12-28T02:39:39;20.00;31.60
22067;DHT22;72821;49.814;19.034;2023-12-28T02:44:43;19.90;32.30
22067;DHT22;72821;49.814;19.034;2023-12-28T02:49:44;19.90;32.30
22067;DHT22;72821;49.814;19.034;2023-12-28T02:54:47;19.90;32.30
22067;DHT22;72821;49.814;19.034;2023-12-28T02:59:49;20.00;32.20
22067;DHT22;72821;49.814;19.034;2023-12-28T03:04:51;19.90;32.40
22067;DHT22;72821;49.814;19.034;2023-12-28T03:09:53;19.90;32.20
22067;DHT22;72821;49.814;19.034;2023-12-28T03:14:55;19.90;32.20
22067;DHT22;72821;49.814;19.034;2023-12-28T03:19:58;20.10;32.00
22067;DHT22;72821;49.814;19.034;2023-12-28T03:25:01;20.20;30.00
22067;DHT22;72821;49.814;19.034;2023-12-28T03:30:03;20.20;29.70
22067;DHT22;72821;49.814;19.034;2023-12-28T03:35:05;20.30;29.50
22067;DHT22;72821;49.814;19.034;2023-12-28T03:40:09;20.40;29.10
22067;DHT22;72821;49.814;19.034;2023-12-28T03:45:11;20.50;29.90
22067;DHT22;72821;49.814;19.034;2023-12-28T03:50:13;20.80;31.20
22067;DHT22;72821;49.814;19.034;2023-12-28T03:55:15;20.60;32.00
22067;DHT22;72821;49.814;19.034;2023-12-28T04:00:18;20.50;32.10
22067;DHT22;72821;49.814;19.034;2023-12-28T04:05:21;20.20;32.60
22067;DHT22;72821;49.814;19.034;2023-12-28T04:10:31;20.00;32.90
22067;DHT22;72821;49.814;19.034;2023-12-28T04:15:33;20.00;33.00
22067;DHT22;72821;49.814;19.034;2023-12-28T04:20:35;19.90;33.20
22067;DHT22;72821;49.814;19.034;2023-12-28T04:25:37;19.60;33.50
22067;DHT22;72821;49.814;19.034;2023-12-28T04:30:39;19.60;33.70
22067;DHT22;72821;49.814;19.034;2023-12-28T04:35:41;20.00;32.80
22067;DHT22;72821;49.814;19.034;2023-12-28T04:40:43;19.90;32.80
22067;DHT22;72821;49.814;19.034;2023-12-28T04:45:45;20.00;32.70
22067;DHT22;72821;49.814;19.034;2023-12-28T04:50:48;20.00;32.80
22067;DHT22;72821;49.814;19.034;2023-12-28T04:55:50;20.00;32.60
22067;DHT22;72821;49.814;19.034;2023-12-28T05:00:52;19.90;32.30
22067;DHT22;72821;49.814;19.034;2023-12-28T05:05:54;19.90;32.60
22067;DHT22;72821;49.814;19.034;2023-12-28T05:10:56;19.80;32.80
22067;DHT22;72821;49.814;19.034;2023-12-28T05:15:58;19.90;32.80
22067;DHT22;72821;49.814;19.034;2023-12-28T05:21:01;20.10;32.60
22067;DHT22;72821;49.814;19.034;2023-12-28T05:26:03;19.90;32.50
22067;DHT22;72821;49.814;19.034;2023-12-28T05:31:05;19.90;32.40
22067;DHT22;72821;49.814;19.034;2023-12-28T05:36:07;19.80;32.60
22067;DHT22;72821;49.814;19.034;2023-12-28T05:41:13;19.90;31.90
22067;DHT22;72821;49.814;19.034;2023-12-28T05:46:15;19.80;32.10
22067;DHT22;72821;49.814;19.034;2023-12-28T05:51:17;19.80;32.20
22067;DHT22;72821;49.814;19.034;2023-12-28T05:56:20;19.80;31.80
22067;DHT22;72821;49.814;19.034;2023-12-28T06:01:22;19.90;31.70
22067;DHT22;72821;49.814;19.034;2023-12-28T06:06:24;19.90;31.10
22067;DHT22;72821;49.814;19.034;2023-12-28T06:11:28;20.00;31.50
22067;DHT22;72821;49.814;19.034;2023-12-28T06:16:32;19.90;30.90
22067;DHT22;72821;49.814;19.034;2023-12-28T06:21:36;20.10;31.10
22067;DHT22;72821;49.814;19.034;2023-12-28T06:26:41;20.10;31.20
22067;DHT22;72821;49.814;19.034;2023-12-28T06:31:43;20.20;31.30
22067;DHT22;72821;49.814;19.034;2023-12-28T06:36:46;20.10;31.30
22067;DHT22;72821;49.814;19.034;2023-12-28T06:41:48;20.00;31.50
22067;DHT22;72821;49.814;19.034;2023-12-28T06:46:51;20.10;31.40
22067;DHT22;72821;49.814;19.034;2023-12-28T06:51:53;20.10;31.70
22067;DHT22;72821;49.814;19.034;2023-12-28T06:56:55;19.90;30.60
22067;DHT22;72821;49.814;19.034;2023-12-28T07:01:57;20.10;31.20
22067;DHT22;72821;49.814;19.034;2023-12-28T07:06:59;20.00;31.40
22067;DHT22;72821;49.814;19.034;2023-12-28T07:12:02;20.00;31.40
22067;DHT22;72821;49.814;19.034;2023-12-28T07:17:04;19.90;31.40
22067;DHT22;72821;49.814;19.034;2023-12-28T07:22:07;20.10;31.40
22067;DHT22;72821;49.814;19.034;2023-12-28T07:27:09;20.20;31.50
22067;DHT22;72821;49.814;19.034;2023-12-28T07:32:11;20.50;31.40
22067;DHT22;72821;49.814;19.034;2023-12-28T07:37:16;20.40;31.60
22067;DHT22;72821;49.814;19.034;2023-12-28T07:42:18;20.40;32.00
22067;DHT22;72821;49.814;19.034;2023-12-28T07:47:20;20.40;31.10
22067;DHT22;72821;49.814;19.034;2023-12-28T07:52:23;20.50;30.80
22067;DHT22;72821;49.814;19.034;2023-12-28T07:57:25;20.80;30.40
22067;DHT22;72821;49.814;19.034;2023-12-28T08:02:27;20.70;30.30
22067;DHT22;72821;49.814;19.034;2023-12-28T08:07:29;20.70;30.60
22067;DHT22;72821;49.814;19.034;2023-12-28T08:12:31;20.80;30.70
22067;DHT22;72821;49.814;19.034;2023-12-28T08:17:33;20.70;30.50
22067;DHT22;72821;49.814;19.034;2023-12-28T08:22:35;21.00;29.70
22067;DHT22;72821;49.814;19.034;2023-12-28T08:27:37;21.10;29.10
22067;DHT22;72821;49.814;19.034;2023-12-28T08:32:39;21.20;29.30
22067;DHT22;72821;49.814;19.034;2023-12-28T08:37:42;21.50;29.30
22067;DHT22;72821;49.814;19.034;2023-12-28T08:42:47;21.60;28.70
22067;DHT22;72821;49.814;19.034;2023-12-28T08:47:49;21.90;28.50
22067;DHT22;72821;49.814;19.034;2023-12-28T08:52:51;22.20;27.90
22067;DHT22;72821;49.814;19.034;2023-12-28T08:57:55;22.30;27.50
22067;DHT22;72821;49.814;19.034;2023-12-28T09:02:58;22.30;27.50
22067;DHT22;72821;49.814;19.034;2023-12-28T09:08:00;22.40;27.00
22067;DHT22;72821;49.814;19.034;2023-12-28T09:13:04;22.40;27.10
22067;DHT22;72821;49.814;19.034;2023-12-28T09:18:07;22.60;26.50
22067;DHT22;72821;49.814;19.034;2023-12-28T09:23:10;22.40;26.70
22067;DHT22;72821;49.814;19.034;2023-12-28T09:28:12;22.70;26.20
22067;DHT22;72821;49.814;19.034;2023-12-28T09:33:15;22.80;26.00
22067;DHT22;72821;49.814;19.034;2023-12-28T09:38:18;22.90;26.00
22067;DHT22;72821;49.814;19.034;2023-12-28T09:43:32;22.90;26.00
22067;DHT22;72821;49.814;19.034;2023-12-28T09:48:39;23.30;26.00
22067;DHT22;72821;49.814;19.034;2023-12-28T09:53:43;23.40;25.10
22067;DHT22;72821;49.814;19.034;2023-12-28T09:58:46;23.40;25.90
22067;DHT22;72821;49.814;19.034;2023-12-28T10:03:51;23.50;25.20
22067;DHT22;72821;49.814;19.034;2023-12-28T10:08:53;23.60;23.10
22067;DHT22;72821;49.814;19.034;2023-12-28T10:13:56;23.60;23.00
22067;DHT22;72821;49.814;19.034;2023-12-28T10:19:01;24.00;22.20
22067;DHT22;72821;49.814;19.034;2023-12-28T10:24:04;24.00;22.90
22067;DHT22;72821;49.814;19.034;2023-12-28T10:29:06;24.30;22.50
22067;DHT22;72821;49.814;19.034;2023-12-28T10:34:08;24.40;22.50
22067;DHT22;72821;49.814;19.034;2023-12-28T10:39:11;24.30;22.50
22067;DHT22;72821;49.814;19.034;2023-12-28T10:44:20;24.60;22.80
22067;DHT22;72821;49.814;19.034;2023-12-28T10:49:25;24.70;23.10
22067;DHT22;72821;49.814;19.034;2023-12-28T10:54:46;25.20;22.50
22067;DHT22;72821;49.814;19.034;2023-12-28T11:00:13;25.50;22.60
22067;DHT22;72821;49.814;19.034;2023-12-28T11:05:16;25.60;22.40
22067;DHT22;72821;49.814;19.034;2023-12-28T11:10:20;25.70;22.30
22067;DHT22;72821;49.814;19.034;2023-12-28T11:15:26;25.90;22.30
22067;DHT22;72821;49.814;19.034;2023-12-28T11:20:29;25.90;22.20
22067;DHT22;72821;49.814;19.034;2023-12-28T11:25:31;26.40;22.30
22067;DHT22;72821;49.814;19.034;2023-12-28T11:30:37;26.50;21.90
22067;DHT22;72821;49.814;19.034;2023-12-28T11:35:40;26.90;22.40
22067;DHT22;72821;49.814;19.034;2023-12-28T11:40:45;27.10;21.60
22067;DHT22;72821;49.814;19.034;2023-12-28T11:45:55;27.30;21.80
22067;DHT22;72821;49.814;19.034;2023-12-28T11:51:00;27.30;21.70
22067;DHT22;72821;49.814;19.034;2023-12-28T11:56:02;27.20;21.90
22067;DHT22;72821;49.814;19.034;2023-12-28T12:01:06;27.40;21.80
22067;DHT22;72821;49.814;19.034;2023-12-28T12:06:08;27.60;21.60
22067;DHT22;72821;49.814;19.034;2023-12-28T12:11:10;27.70;22.30
22067;DHT22;72821;49.814;19.034;2023-12-28T12:16:16;27.90;21.70
22067;DHT22;72821;49.814;19.034;2023-12-28T12:21:18;28.00;21.90
22067;DHT22;72821;49.814;19.034;2023-12-28T12:26:20;28.00;22.00
22067;DHT22;72821;49.814;19.034;2023-12-28T12:31:24;28.10;22.20
22067;DHT22;72821;49.814;19.034;2023-12-28T12:36:26;28.10;22.70
22067;DHT22;72821;49.814;19.034;2023-12-28T12:41:28;28.20;22.90
22067;DHT22;72821;49.814;19.034;2023-12-28T12:46:31;27.90;23.40
22067;DHT22;72821;49.814;19.034;2023-12-28T12:51:34;27.60;23.60
22067;DHT22;72821;49.814;19.034;2023-12-28T12:56:37;27.50;24.10
22067;DHT22;72821;49.814;19.034;2023-12-28T13:01:41;27.70;23.90
22067;DHT22;72821;49.814;19.034;2023-12-28T13:06:43;27.80;23.90
22067;DHT22;72821;49.814;19.034;2023-12-28T13:11:45;28.00;23.90
22067;DHT22;72821;49.814;19.034;2023-12-28T13:16:51;28.20;23.90
22067;DHT22;72821;49.814;19.034;2023-12-28T13:21:59;28.10;24.00
22067;DHT22;72821;49.814;19.034;2023-12-28T13:27:01;27.90;24.20
22067;DHT22;72821;49.814;19.034;2023-12-28T13:32:03;28.20;24.10
22067;DHT22;72821;49.814;19.034;2023-12-28T13:37:06;27.80;24.40
22067;DHT22;72821;49.814;19.034;2023-12-28T13:42:08;27.30;24.60
22067;DHT22;72821;49.814;19.034;2023-12-28T13:47:10;26.70;25.20
22067;DHT22;72821;49.814;19.034;2023-12-28T13:52:12;26.20;25.80
22067;DHT22;72821;49.814;19.034;2023-12-28T13:57:14;25.80;26.90
22067;DHT22;72821;49.814;19.034;2023-12-28T14:02:16;25.50;27.10
22067;DHT22;72821;49.814;19.034;2023-12-28T14:07:19;25.00;27.10
22067;DHT22;72821;49.814;19.034;2023-12-28T14:12:21;24.60;27.40
22067;DHT22;72821;49.814;19.034;2023-12-28T14:17:23;24.20;28.00
22067;DHT22;72821;49.814;19.034;2023-12-28T14:22:26;23.90;28.70
22067;DHT22;72821;49.814;19.034;2023-12-28T14:27:29;23.90;28.30
22067;DHT22;72821;49.814;19.034;2023-12-28T14:32:32;23.70;28.50
22067;DHT22;72821;49.814;19.034;2023-12-28T14:37:34;23.50;28.70
22067;DHT22;72821;49.814;19.034;2023-12-28T14:42:37;23.50;28.80
22067;DHT22;72821;49.814;19.034;2023-12-28T14:47:40;23.40;28.90
22067;DHT22;72821;49.814;19.034;2023-12-28T14:52:42;23.40;29.00
22067;DHT22;72821;49.814;19.034;2023-12-28T14:57:44;23.30;29.10
22067;DHT22;72821;49.814;19.034;2023-12-28T15:02:47;23.30;29.20
22067;DHT22;72821;49.814;19.034;2023-12-28T15:07:49;23.20;29.40
22067;DHT22;72821;49.814;19.034;2023-12-28T15:12:52;23.30;29.30
22067;DHT22;72821;49.814;19.034;2023-12-28T15:17:54;23.30;29.30
22067;DHT22;72821;49.814;19.034;2023-12-28T15:22:57;23.30;29.30
22067;DHT22;72821;49.814;19.034;2023-12-28T15:27:59;23.20;29.30
22067;DHT22;72821;49.814;19.034;2023-12-28T15:33:04;23.20;29.50
22067;DHT22;72821;49.814;19.034;2023-12-28T15:38:07;23.10;29.60
22067;DHT22;72821;49.814;19.034;2023-12-28T15:43:09;23.00;29.80
22067;DHT22;72821;49.814;19.034;2023-12-28T15:48:12;23.00;30.30
22067;DHT22;72821;49.814;19.034;2023-12-28T15:53:16;23.00;31.00
22067;DHT22;72821;49.814;19.034;2023-12-28T15:58:19;23.10;30.20
22067;DHT22;72821;49.814;19.034;2023-12-28T16:03:24;23.00;30.60
22067;DHT22;72821;49.814;19.034;2023-12-28T16:08:26;23.00;30.40
22067;DHT22;72821;49.814;19.034;2023-12-28T16:13:28;22.90;30.50
22067;DHT22;72821;49.814;19.034;2023-12-28T16:18:30;22.90;30.40
22067;DHT22;72821;49.814;19.034;2023-12-28T16:23:33;22.80;30.40
22067;DHT22;72821;49.814;19.034;2023-12-28T16:28:35;22.80;30.80
22067;DHT22;72821;49.814;19.034;2023-12-28T16:33:38;22.80;30.00
22067;DHT22;72821;49.814;19.034;2023-12-28T16:38:40;22.70;30.30
22067;DHT22;72821;49.814;19.034;2023-12-28T16:43:43;22.60;30.20
22067;DHT22;72821;49.814;19.034;2023-12-28T16:48:45;22.60;30.70
22067;DHT22;72821;49.814;19.034;2023-12-28T16:53:49;22.50;31.20
22067;DHT22;72821;49.814;19.034;2023-12-28T16:58:51;22.50;31.50
22067;DHT22;72821;49.814;19.034;2023-12-28T17:03:53;22.60;31.40
22067;DHT22;72821;49.814;19.034;2023-12-28T17:08:55;22.70;31.10
22067;DHT22;72821;49.814;19.034;2023-12-28T17:13:57;22.60;30.50
22067;DHT22;72821;49.814;19.034;2023-12-28T17:19:00;22.60;30.50
22067;DHT22;72821;49.814;19.034;2023-12-28T17:24:03;22.50;30.70
22067;DHT22;72821;49.814;19.034;2023-12-28T17:29:07;22.50;30.80
22067;DHT22;72821;49.814;19.034;2023-12-28T17:34:12;22.40;30.80
22067;DHT22;72821;49.814;19.034;2023-12-28T17:39:16;22.30;30.90
22067;DHT22;72821;49.814;19.034;2023-12-28T17:44:26;22.30;30.80
22067;DHT22;72821;49.814;19.034;2023-12-28T17:49:31;22.40;31.00
22067;DHT22;72821;49.814;19.034;2023-12-28T17:54:33;22.40;30.50
22067;DHT22;72821;49.814;19.034;2023-12-28T17:59:35;22.30;30.30
22067;DHT22;72821;49.814;19.034;2023-12-28T18:04:40;22.20;30.60
22067;DHT22;72821;49.814;19.034;2023-12-28T18:09:42;22.10;30.80
22067;DHT22;72821;49.814;19.034;2023-12-28T18:14:44;21.90;31.00
22067;DHT22;72821;49.814;19.034;2023-12-28T18:19:47;21.70;31.40
22067;DHT22;72821;49.814;19.034;2023-12-28T18:24:49;21.90;31.60
22067;DHT22;72821;49.814;19.034;2023-12-28T18:29:51;21.70;31.70
22067;DHT22;72821;49.814;19.034;2023-12-28T18:34:55;21.50;31.80
22067;DHT22;72821;49.814;19.034;2023-12-28T18:39:59;21.60;32.00
22067;DHT22;72821;49.814;19.034;2023-12-28T18:45:05;21.60;31.90
22067;DHT22;72821;49.814;19.034;2023-12-28T18:50:08;21.50;32.20
22067;DHT22;72821;49.814;19.034;2023-12-28T18:55:10;21.60;32.10
22067;DHT22;72821;49.814;19.034;2023-12-28T19:00:13;21.50;32.40
22067;DHT22;72821;49.814;19.034;2023-12-28T19:05:16;21.50;32.70
22067;DHT22;72821;49.814;19.034;2023-12-28T19:10:20;21.50;32.60
22067;DHT22;72821;49.814;19.034;2023-12-28T19:15:22;21.50;32.70
22067;DHT22;72821;49.814;19.034;2023-12-28T19:20:24;21.70;32.40
22067;DHT22;72821;49.814;19.034;2023-12-28T19:25:26;21.70;32.40
22067;DHT22;72821;49.814;19.034;2023-12-28T19:30:28;21.90;32.20
22067;DHT22;72821;49.814;19.034;2023-12-28T19:35:30;22.00;31.90
22067;DHT22;72821;49.814;19.034;2023-12-28T19:40:33;21.90;31.80
22067;DHT22;72821;49.814;19.034;2023-12-28T19:45:35;21.90;31.60
22067;DHT22;72821;49.814;19.034;2023-12-28T19:50:37;21.70;32.00
22067;DHT22;72821;49.814;19.034;2023-12-28T19:55:41;21.80;32.20
22067;DHT22;72821;49.814;19.034;2023-12-28T20:00:43;21.70;32.50
22067;DHT22;72821;49.814;19.034;2023-12-28T20:05:46;21.80;32.10
22067;DHT22;72821;49.814;19.034;2023-12-28T20:10:48;21.80;32.30
22067;DHT22;72821;49.814;19.034;2023-12-28T20:15:50;21.70;32.60
22067;DHT22;72821;49.814;19.034;2023-12-28T20:20:53;21.70;32.50
22067;DHT22;72821;49.814;19.034;2023-12-28T20:25:55;21.90;31.90
22067;DHT22;72821;49.814;19.034;2023-12-28T20:30:58;22.00;32.00
22067;DHT22;72821;49.814;19.034;2023-12-28T20:36:00;22.00;32.50
22067;DHT22;72821;49.814;19.034;2023-12-28T20:41:03;22.10;32.30
22067;DHT22;72821;49.814;19.034;2023-12-28T20:46:07;22.10;31.70
22067;DHT22;72821;49.814;19.034;2023-12-28T21:04:06;22.40;31.60
22067;DHT22;72821;49.814;19.034;2023-12-28T21:09:14;22.30;31.30
22067;DHT22;72821;49.814;19.034;2023-12-28T21:14:17;22.40;31.50
22067;DHT22;72821;49.814;19.034;2023-12-28T21:19:19;22.40;31.10
22067;DHT22;72821;49.814;19.034;2023-12-28T21:24:21;22.10;32.50
22067;DHT22;72821;49.814;19.034;2023-12-28T21:29:23;21.70;33.80
22067;DHT22;72821;49.814;19.034;2023-12-28T21:34:25;21.10;34.60
22067;DHT22;72821;49.814;19.034;2023-12-28T21:39:46;20.80;35.30
22067;DHT22;72821;49.814;19.034;2023-12-28T22:11:30;20.00;38.10
22067;DHT22;72821;49.814;19.034;2023-12-28T22:16:33;20.00;37.70
22067;DHT22;72821;49.814;19.034;2023-12-28T22:21:48;20.10;37.70
22067;DHT22;72821;49.814;19.034;2023-12-28T23:03:16;21.00;36.30
22067;DHT22;72821;49.814;19.034;2023-12-28T23:08:18;21.00;35.80
22067;DHT22;72821;49.814;19.034;2023-12-28T23:13:20;21.10;36.00
22067;DHT22;72821;49.814;19.034;2023-12-28T23:18:23;21.20;35.80
22067;DHT22;72821;49.814;19.034;2023-12-28T23:23:25;21.20;36.20
22067;DHT22;72821;49.814;19.034;2023-12-28T23:28:27;21.20;36.10
22067;DHT22;72821;49.814;19.034;2023-12-28T23:33:29;21.30;36.00
22067;DHT22;72821;49.814;19.034;2023-12-28T23:38:31;21.40;36.40
22067;DHT22;72821;49.814;19.034;2023-12-28T23:43:33;21.30;36.10
22067;DHT22;72821;49.814;19.034;2023-12-28T23:48:35;21.20;36.20
22067;DHT22;72821;49.814;19.034;2023-12-28T23:53:38;21.10;36.30
22067;DHT22;72821;49.814;19.034;2023-12-28T23:58:40;21.00;36.40
